首页
METAR-TAF:

METAR-TAF

机场 :

费尔班克斯国际机场

費爾班克斯, 阿拉斯加州, 美国

纬度: 64-48-14N, 经度: 147-52-34W, 海拔: 132米

当前天气观测

该预报发布于16分钟前的21:33 UTC
静风
温度 -31°C
湿度 75%
气压 1007 hPa
能見度: 2.0公里
散云层高于1400英尺
多云层高于2600英尺
阴天层高于3400英尺
小雪, 轻雾

METAR: PAFA 262133Z 00000KT 1 1/4SM R02L/5500VP6000FT -SN BR SCT014 BKN026 OVC034 M31/M34 A2973 RMK AO2 T13111344 $

时间: 12:49 (21:49 UTC)

预报

该预报发布于3小时和45分钟前的18:04 UTC
预报有效从26日的 18点(UTC)到 27日的 24点(UTC)
风速节,风向
能見度: 3.2公里
多云层高于3500英尺
阴天层高于5000英尺
小雪, 轻雾
从 27日的 0000点(UTC)
风速节,风向
能見度: 6.4公里
多云层高于3500英尺
多云层高于5000英尺
阴天层高于10000英尺
小雪, 轻雾
从 27日的 0600点(UTC)
风速3节,风向多变
能見度: 9.7公里
多云层高于3500英尺
阴天层高于5000英尺
小雪

TAF: PAFA 261804Z 2618/2724 00000KT 2SM -SN BR BKN035 OVC050 FM270000 00000KT 4SM -SN BR BKN035 BKN050 OVC100 FM270600 VRB03KT 6SM -SN BKN035 OVC050

超过4000个机场的气象观测和天气预报(METAR&TAF报告)。

可查询的气象台以黄色和红色小点在地图上表示。

将鼠标移到小点上方,可查看气象台名称。

然后点击查看天气观测和预报。

如需切换地图:点击带黑十字的绿色按钮放大地图;点击带横线的绿色按钮缩小地图;或者点击绿色箭头查看邻近地区的地图。


METAR-TAF: